createdAt,value
2018-04-24T00:01:51.269Z,7.30
2018-04-24T00:04:20.291Z,7.40
2018-04-24T00:06:48.561Z,7.13
2018-04-24T00:09:16.817Z,6.70
2018-04-24T00:11:45.851Z,6.40
2018-04-24T00:14:14.131Z,6.77
2018-04-24T00:16:42.394Z,6.70
2018-04-24T00:19:10.646Z,6.97
2018-04-24T00:21:39.687Z,7.40
2018-04-24T00:24:07.943Z,7.10
2018-04-24T00:26:36.206Z,7.15
2018-04-24T00:29:05.241Z,6.70
2018-04-24T00:31:33.502Z,7.27
2018-04-24T00:34:01.762Z,6.28
2018-04-24T00:36:30.028Z,6.82
2018-04-24T00:38:58.285Z,7.33
2018-04-24T00:41:27.783Z,6.40
2018-04-24T00:43:56.050Z,6.30
2018-04-24T00:46:24.310Z,7.47
2018-04-24T00:48:52.583Z,7.57
2018-04-24T00:51:21.620Z,7.20
2018-04-24T00:53:49.877Z,7.60
2018-04-24T00:56:18.136Z,7.13
2018-04-24T00:58:47.156Z,5.93
2018-04-24T01:01:15.406Z,6.40
2018-04-24T01:03:43.662Z,6.10
2018-04-24T01:06:11.925Z,6.03
2018-04-24T01:08:40.185Z,6.53
2018-04-24T01:11:08.443Z,5.80
2018-04-24T01:13:37.475Z,4.70
2018-04-24T01:16:05.727Z,5.50
2018-04-24T01:18:33.995Z,4.05
2018-04-24T01:21:03.011Z,4.63
2018-04-24T01:23:31.270Z,4.97
2018-04-24T01:26:00.287Z,4.80
2018-04-24T01:28:28.551Z,4.10
2018-04-24T01:30:57.576Z,4.03
2018-04-24T01:33:25.851Z,3.53
2018-04-24T01:35:54.103Z,3.57
2018-04-24T01:38:22.363Z,3.33
2018-04-24T01:40:50.610Z,3.87
2018-04-24T01:43:18.883Z,3.60
2018-04-24T01:45:47.136Z,3.67
2018-04-24T01:48:16.168Z,3.63
2018-04-24T01:50:44.419Z,3.50
2018-04-24T01:53:13.442Z,3.13
2018-04-24T01:55:41.859Z,3.70
2018-04-24T01:58:10.110Z,2.97
2018-04-24T02:00:38.363Z,3.47
2018-04-24T02:03:07.386Z,3.23
2018-04-24T02:05:35.637Z,3.67
2018-04-24T02:08:04.665Z,3.33
2018-04-24T02:10:32.928Z,2.97
2018-04-24T02:13:01.195Z,3.57
2018-04-24T02:15:30.214Z,3.23
2018-04-24T02:17:58.811Z,3.53
2018-04-24T02:20:27.065Z,3.53
2018-04-24T02:22:56.095Z,3.73
2018-04-24T02:25:24.349Z,3.13
2018-04-24T02:27:52.607Z,3.67
2018-04-24T02:30:21.623Z,3.60
2018-04-24T02:32:49.893Z,3.77
2018-04-24T02:35:18.911Z,3.60
2018-04-24T02:37:47.179Z,4.00
2018-04-24T02:40:16.199Z,4.05
2018-04-24T02:42:44.458Z,4.27
2018-04-24T02:45:12.714Z,3.92
2018-04-24T02:47:40.971Z,4.47
2018-04-24T02:50:09.231Z,4.40
2018-04-24T02:52:37.487Z,3.73
2018-04-24T02:55:05.760Z,4.67
2018-04-24T02:57:36.031Z,3.70
2018-04-24T03:00:04.279Z,4.30
2018-04-24T03:02:32.531Z,4.40
2018-04-24T03:05:01.568Z,4.45
2018-04-24T03:07:29.819Z,4.43
2018-04-24T03:09:58.848Z,4.63
2018-04-24T03:12:27.099Z,4.28
2018-04-24T03:14:56.129Z,3.67
2018-04-24T03:17:24.379Z,4.63
2018-04-24T03:19:53.395Z,4.10
2018-04-24T03:22:21.654Z,3.80
2018-04-24T03:24:50.678Z,4.40
2018-04-24T03:27:18.930Z,4.32
2018-04-24T03:29:47.959Z,4.25
2018-04-24T03:32:16.207Z,4.60
2018-04-24T03:34:45.235Z,4.60
2018-04-24T03:37:13.494Z,3.97
2018-04-24T03:39:42.513Z,4.17
2018-04-24T03:42:10.788Z,4.30
2018-04-24T03:44:39.035Z,4.70
2018-04-24T03:47:07.279Z,4.60
2018-04-24T03:49:35.550Z,4.40
2018-04-24T03:52:03.806Z,4.57
2018-04-24T03:54:32.070Z,4.13
2018-04-24T03:57:00.327Z,4.07
2018-04-24T03:59:28.588Z,4.23
2018-04-24T04:01:56.843Z,4.07
2018-04-24T04:04:25.110Z,3.77
2018-04-24T04:06:53.364Z,4.40
2018-04-24T04:09:22.387Z,4.30
2018-04-24T04:11:51.559Z,4.40
2018-04-24T04:14:20.583Z,4.10
2018-04-24T04:16:51.131Z,3.70
2018-04-24T04:19:37.892Z,4.17
2018-04-24T04:22:24.865Z,4.00
2018-04-24T04:24:53.092Z,4.50
2018-04-24T04:27:22.106Z,4.23
2018-04-24T04:29:50.366Z,4.30
2018-04-24T04:32:19.383Z,4.20
2018-04-24T04:34:47.643Z,3.70
2018-04-24T04:37:16.712Z,3.85
2018-04-24T04:39:44.975Z,4.10
2018-04-24T04:42:13.231Z,3.47
2018-04-24T04:44:41.495Z,4.33
2018-04-24T04:47:09.743Z,3.87
2018-04-24T04:49:38.013Z,4.43
2018-04-24T04:52:06.271Z,4.13
2018-04-24T04:54:34.551Z,3.87
2018-04-24T04:57:02.802Z,4.10
2018-04-24T04:59:31.071Z,4.27
2018-04-24T05:02:00.090Z,4.10
2018-04-24T05:04:28.338Z,3.87
2018-04-24T05:06:57.371Z,4.00
2018-04-24T05:09:25.645Z,4.20
2018-04-24T05:11:54.718Z,4.40
2018-04-24T05:14:22.915Z,4.13
2018-04-24T05:16:51.170Z,3.93
2018-04-24T05:19:20.323Z,4.15
2018-04-24T05:21:48.593Z,4.37
2018-04-24T05:24:16.843Z,4.32
2018-04-24T05:26:45.870Z,3.80
2018-04-24T05:29:14.119Z,3.87
2018-04-24T05:31:43.147Z,4.20
2018-04-24T05:34:11.411Z,3.83
2018-04-24T05:36:39.676Z,3.90
2018-04-24T05:39:08.691Z,4.20
2018-04-24T05:41:36.954Z,4.27
2018-04-24T05:44:05.896Z,3.80
2018-04-24T05:46:34.161Z,4.80
2018-04-24T05:49:02.482Z,3.80
2018-04-24T05:51:30.736Z,4.30
2018-04-24T05:53:58.987Z,3.77
2018-04-24T05:56:27.257Z,3.95
2018-04-24T05:58:56.271Z,4.17
2018-04-24T06:01:25.318Z,4.37
2018-04-24T06:03:53.586Z,3.93
2018-04-24T06:06:21.835Z,4.18
2018-04-24T06:08:50.115Z,4.00
2018-04-24T06:11:18.378Z,3.73
2018-04-24T06:13:46.627Z,3.93
2018-04-24T06:16:14.895Z,3.45
2018-04-24T06:18:43.146Z,3.83
2018-04-24T06:21:11.423Z,3.40
2018-04-24T06:23:39.678Z,3.80
2018-04-24T06:26:08.710Z,4.07
2018-04-24T06:28:37.036Z,4.00
2018-04-24T06:31:05.227Z,4.70
2018-04-24T06:33:34.239Z,4.30
2018-04-24T06:36:02.601Z,4.23
2018-04-24T06:38:32.333Z,4.10
2018-04-24T06:41:01.347Z,4.33
2018-04-24T06:43:29.611Z,3.97
2018-04-24T06:45:57.865Z,4.53
2018-04-24T06:48:26.900Z,4.00
2018-04-24T06:50:55.918Z,4.20
2018-04-24T06:53:24.183Z,4.07
2018-04-24T06:55:52.444Z,4.97
2018-04-24T06:58:21.476Z,4.63
2018-04-24T07:00:49.792Z,4.40
2018-04-24T07:03:17.998Z,4.93
2018-04-24T07:05:47.022Z,4.60
2018-04-24T07:08:15.313Z,4.57
2018-04-24T07:10:43.592Z,4.55
2018-04-24T07:13:12.897Z,4.20
2018-04-24T07:15:41.151Z,4.83
2018-04-24T07:18:09.419Z,4.53
2018-04-24T07:20:38.418Z,4.15
2018-04-24T07:23:07.446Z,5.05
2018-04-24T07:25:35.702Z,4.35
2018-04-24T07:28:04.723Z,4.80
2018-04-24T07:30:33.000Z,5.10
2018-04-24T07:33:01.310Z,4.47
2018-04-24T07:35:29.514Z,4.72
2018-04-24T07:37:57.780Z,4.60
2018-04-24T07:40:26.032Z,5.00
2018-04-24T07:42:54.304Z,4.90
2018-04-24T07:45:22.559Z,5.00
2018-04-24T07:47:50.827Z,5.03
2018-04-24T07:50:19.855Z,5.70
2018-04-24T07:52:48.123Z,5.70
2018-04-24T07:55:16.375Z,5.10
2018-04-24T07:57:44.631Z,5.10
2018-04-24T08:00:12.901Z,5.35
2018-04-24T08:02:41.159Z,5.60
2018-04-24T08:05:09.439Z,5.03
2018-04-24T08:07:37.705Z,5.25
2018-04-24T08:10:06.799Z,5.60
2018-04-24T08:12:35.811Z,5.37
2018-04-24T08:15:04.079Z,5.10
2018-04-24T08:17:32.335Z,5.30
2018-04-24T08:20:00.605Z,5.47
2018-04-24T08:22:38.508Z,5.47
2018-04-24T08:25:06.762Z,5.87
2018-04-24T08:27:35.024Z,5.60
2018-04-24T08:30:03.292Z,4.57
2018-04-24T08:32:31.547Z,5.18
2018-04-24T08:35:00.579Z,4.80
2018-04-24T08:37:28.829Z,5.00
2018-04-24T08:39:57.892Z,5.80
2018-04-24T08:42:26.130Z,5.70
2018-04-24T08:44:54.390Z,5.15
2018-04-24T08:47:23.420Z,4.93
2018-04-24T08:49:51.677Z,5.55
2018-04-24T08:52:19.935Z,4.93
2018-04-24T08:54:48.218Z,4.22
2018-04-24T08:57:16.452Z,5.10
2018-04-24T08:59:44.708Z,4.37
2018-04-24T09:02:12.963Z,4.18
2018-04-24T09:04:43.639Z,4.00
2018-04-24T09:07:11.890Z,4.30
2018-04-24T09:09:40.918Z,4.03
2018-04-24T09:12:09.166Z,4.35
2018-04-24T09:14:38.203Z,4.10
2018-04-24T09:17:06.446Z,4.00
2018-04-24T09:19:34.718Z,4.07
2018-04-24T09:22:03.743Z,3.80
2018-04-24T09:24:32.002Z,3.78
2018-04-24T09:27:01.112Z,4.10
2018-04-24T09:29:29.286Z,4.03
2018-04-24T09:31:58.316Z,4.30
2018-04-24T09:34:26.566Z,3.87
2018-04-24T09:36:54.822Z,3.92
2018-04-24T09:39:23.843Z,4.67
2018-04-24T09:41:52.304Z,3.78
2018-04-24T09:44:20.551Z,3.87
2018-04-24T09:46:48.824Z,3.83
2018-04-24T09:49:17.076Z,3.50
2018-04-24T09:51:45.346Z,3.77
2018-04-24T09:54:14.584Z,3.74
2018-04-24T09:56:42.884Z,3.55
2018-04-24T09:59:11.108Z,3.92
2018-04-24T10:01:39.392Z,3.20
2018-04-24T10:04:07.642Z,3.65
2018-04-24T10:06:35.903Z,3.60
2018-04-24T10:09:04.155Z,4.03
2018-04-24T10:11:32.415Z,3.90
2018-04-24T10:14:00.667Z,3.90
2018-04-24T10:16:28.939Z,3.40
2018-04-24T10:18:57.191Z,3.42
2018-04-24T10:21:25.507Z,3.33
2018-04-24T10:23:53.779Z,3.57
2018-04-24T10:26:22.047Z,3.40
2018-04-24T10:28:50.303Z,3.50
2018-04-24T10:31:18.578Z,4.83
2018-04-24T10:33:46.837Z,3.77
2018-04-24T10:36:16.227Z,3.72
2018-04-24T10:38:45.263Z,3.35
2018-04-24T10:41:13.531Z,3.55
2018-04-24T10:43:41.785Z,3.03
2018-04-24T10:46:10.059Z,3.17
2018-04-24T10:48:38.300Z,3.28
2018-04-24T10:51:06.556Z,3.17
2018-04-24T10:53:34.818Z,3.33
2018-04-24T10:56:03.925Z,3.17
2018-04-24T10:58:32.098Z,3.37
2018-04-24T11:01:00.354Z,2.53
2018-04-24T11:03:28.635Z,3.60
2018-04-24T11:05:56.893Z,6.03
2018-04-24T11:08:25.153Z,2.90
2018-04-24T11:10:53.406Z,2.95
2018-04-24T11:13:21.682Z,2.97
2018-04-24T11:15:49.947Z,2.60
2018-04-24T11:18:18.678Z,2.90
2018-04-24T11:20:46.932Z,3.15
2018-04-24T11:23:15.198Z,2.50
2018-04-24T11:25:44.223Z,2.90
2018-04-24T11:28:12.491Z,2.33
2018-04-24T11:30:40.738Z,2.83
2018-04-24T11:33:09.027Z,2.60
2018-04-24T11:35:37.276Z,2.80
2018-04-24T11:38:05.540Z,2.58
2018-04-24T11:40:33.779Z,3.00
2018-04-24T11:43:02.817Z,3.30
2018-04-24T11:45:31.722Z,4.03
2018-04-24T11:47:59.983Z,2.42
2018-04-24T11:50:28.240Z,2.65
2018-04-24T11:52:57.262Z,3.12
2018-04-24T11:55:25.523Z,2.83
2018-04-24T11:57:54.551Z,7.13
2018-04-24T12:00:22.804Z,3.05
2018-04-24T12:02:51.083Z,3.90
2018-04-24T12:05:20.079Z,3.70
2018-04-24T12:07:49.126Z,2.60
2018-04-24T12:10:17.397Z,3.97
2018-04-24T12:12:45.657Z,2.80
2018-04-24T12:15:13.903Z,3.17
2018-04-24T12:17:42.928Z,2.80
2018-04-24T12:20:11.176Z,3.35
2018-04-24T12:22:40.204Z,4.28
2018-04-24T12:25:08.465Z,2.47
2018-04-24T12:27:37.496Z,2.73
2018-04-24T12:30:05.756Z,2.67
2018-04-24T12:32:34.025Z,2.90
2018-04-24T12:35:03.055Z,3.15
2018-04-24T12:37:31.314Z,2.60
2018-04-24T12:39:59.562Z,2.60
2018-04-24T12:42:27.808Z,2.50
2018-04-24T12:44:56.079Z,2.85
2018-04-24T12:47:24.332Z,2.50
2018-04-24T12:49:53.628Z,2.60
2018-04-24T12:52:22.637Z,2.60
2018-04-24T12:54:50.893Z,2.60
2018-04-24T12:57:19.929Z,2.47
2018-04-24T12:59:48.178Z,2.40
2018-04-24T13:02:17.196Z,2.70
2018-04-24T13:04:45.522Z,2.37
2018-04-24T13:07:14.478Z,2.80
2018-04-24T13:09:42.762Z,2.43
2018-04-24T13:12:11.002Z,2.43
2018-04-24T13:14:39.270Z,2.67
2018-04-24T13:17:07.542Z,2.40
2018-04-24T13:19:35.808Z,2.90
2018-04-24T13:22:04.071Z,2.40
2018-04-24T13:24:32.813Z,2.30
2018-04-24T13:27:01.059Z,2.50
2018-04-24T13:29:29.327Z,4.33
2018-04-24T13:31:57.586Z,2.90
2018-04-24T13:34:26.610Z,2.50
2018-04-24T13:36:54.864Z,2.15
2018-04-24T13:39:23.883Z,2.70
2018-04-24T13:41:52.242Z,2.10
2018-04-24T13:44:22.524Z,2.50
2018-04-24T13:46:50.763Z,2.40
2018-04-24T13:49:19.060Z,2.40
2018-04-24T13:51:47.306Z,2.10
2018-04-24T13:54:16.334Z,2.43
2018-04-24T13:56:45.432Z,2.48
2018-04-24T13:59:13.704Z,2.30
2018-04-24T14:01:41.954Z,2.20
2018-04-24T14:04:11.867Z,2.20
2018-04-24T14:06:40.878Z,2.60
2018-04-24T14:09:09.903Z,2.50
2018-04-24T14:11:38.163Z,2.10
2018-04-24T14:14:06.471Z,2.40
2018-04-24T14:16:34.722Z,2.10
2018-04-24T14:19:02.995Z,2.20
2018-04-24T14:21:32.051Z,2.37
2018-04-24T14:24:00.278Z,2.40
2018-04-24T14:26:29.299Z,2.17
2018-04-24T14:28:58.402Z,2.16
2018-04-24T14:31:26.655Z,2.33
2018-04-24T14:33:55.679Z,2.50
2018-04-24T14:36:25.290Z,2.40
2018-04-24T14:38:53.540Z,2.28
2018-04-24T14:41:22.567Z,2.28
2018-04-24T14:43:50.823Z,2.03
2018-04-24T14:46:19.847Z,2.30
2018-04-24T14:48:48.188Z,2.55
2018-04-24T14:51:16.383Z,2.00
2018-04-24T14:53:44.628Z,2.25
2018-04-24T14:56:12.894Z,2.03
2018-04-24T14:58:41.141Z,2.20
2018-04-24T15:01:09.417Z,2.20
2018-04-24T15:03:37.676Z,2.00
2018-04-24T15:06:06.699Z,2.00
2018-04-24T15:08:34.959Z,2.30
2018-04-24T15:11:03.997Z,2.25
2018-04-24T15:13:32.238Z,2.25
2018-04-24T15:16:00.495Z,2.03
2018-04-24T15:18:28.767Z,2.83
2018-04-24T15:20:57.032Z,3.42
2018-04-24T15:23:25.291Z,2.70
2018-04-24T15:25:53.543Z,2.23
2018-04-24T15:28:21.796Z,2.33
2018-04-24T15:30:50.059Z,2.50
2018-04-24T15:33:18.336Z,2.17
2018-04-24T15:35:46.595Z,2.30
2018-04-24T15:38:14.854Z,2.13
2018-04-24T15:40:43.114Z,2.10
2018-04-24T15:43:12.152Z,2.08
2018-04-24T15:45:40.411Z,2.17
2018-04-24T15:48:08.758Z,2.63
2018-04-24T15:50:37.688Z,2.20
2018-04-24T15:53:05.951Z,2.15
2018-04-24T15:55:34.975Z,2.40
2018-04-24T15:58:03.226Z,2.27
2018-04-24T16:00:32.260Z,2.20
2018-04-24T16:03:00.528Z,2.28
2018-04-24T16:05:28.801Z,2.37
2018-04-24T16:07:57.814Z,2.65
2018-04-24T16:10:26.078Z,2.03
2018-04-24T16:12:54.341Z,2.35
2018-04-24T16:15:23.366Z,2.40
2018-04-24T16:17:51.627Z,2.37
2018-04-24T16:20:20.643Z,2.20
2018-04-24T16:22:48.909Z,2.20
2018-04-24T16:25:17.794Z,2.38
2018-04-24T16:27:46.823Z,2.10
2018-04-24T16:30:15.080Z,1.90
2018-04-24T16:32:44.109Z,2.10
2018-04-24T16:35:12.358Z,2.15
2018-04-24T16:37:40.628Z,2.30
2018-04-24T16:40:09.651Z,2.40
2018-04-24T16:42:37.911Z,2.20
2018-04-24T16:45:06.942Z,2.00
2018-04-24T16:47:35.857Z,2.33
2018-04-24T16:50:04.107Z,2.30
2018-04-24T16:52:32.355Z,2.33
2018-04-24T16:55:01.384Z,2.20
2018-04-24T16:57:30.257Z,2.26
2018-04-24T16:59:59.282Z,2.22
2018-04-24T17:02:27.558Z,2.10
2018-04-24T17:04:55.813Z,2.20
2018-04-24T17:07:24.847Z,2.42
2018-04-24T17:09:53.122Z,1.95
2018-04-24T17:12:21.376Z,2.30
2018-04-24T17:14:50.405Z,2.20
2018-04-24T17:17:18.688Z,2.10
2018-04-24T17:19:46.962Z,2.33
2018-04-24T17:22:15.339Z,2.15
2018-04-24T17:24:43.591Z,2.20
2018-04-24T17:27:12.614Z,2.87
2018-04-24T17:29:41.706Z,2.10
2018-04-24T17:32:09.977Z,2.55
2018-04-24T17:34:38.263Z,7.22
2018-04-24T17:37:06.541Z,4.27
2018-04-24T17:39:37.967Z,3.08
2018-04-24T17:42:06.233Z,2.55
2018-04-24T17:44:34.483Z,2.78
2018-04-24T17:47:02.744Z,2.17
2018-04-24T17:49:31.010Z,2.05
2018-04-24T17:52:00.048Z,2.63
2018-04-24T17:54:28.295Z,3.10
2018-04-24T17:56:56.558Z,2.80
2018-04-24T17:59:25.573Z,3.00
2018-04-24T18:01:55.082Z,2.13
2018-04-24T18:04:23.562Z,2.70
2018-04-24T18:06:51.847Z,2.87
2018-04-24T18:09:20.117Z,3.20
2018-04-24T18:11:49.143Z,2.47
2018-04-24T18:14:17.392Z,2.50
2018-04-24T18:16:46.428Z,2.35
2018-04-24T18:19:14.688Z,2.60
2018-04-24T18:21:42.959Z,2.40
2018-04-24T18:24:11.988Z,2.40
2018-04-24T18:26:40.239Z,2.40
2018-04-24T18:29:09.266Z,2.43
2018-04-24T18:31:37.520Z,2.70
2018-04-24T18:34:06.555Z,2.20
2018-04-24T18:36:34.815Z,2.43
2018-04-24T18:39:03.082Z,2.33
2018-04-24T18:41:31.344Z,2.30
2018-04-24T18:44:00.994Z,2.40
2018-04-24T18:46:29.246Z,2.43
2018-04-24T18:48:58.275Z,2.67
2018-04-24T18:51:26.532Z,2.65
2018-04-24T18:53:54.799Z,2.77
2018-04-24T18:56:23.824Z,2.60
2018-04-24T18:58:52.088Z,2.15
2018-04-24T19:01:21.099Z,2.33
2018-04-24T19:03:49.377Z,2.47
2018-04-24T19:06:17.619Z,2.73
2018-04-24T19:08:45.901Z,2.45
2018-04-24T19:11:14.152Z,2.67
2018-04-24T19:13:42.413Z,2.47
2018-04-24T19:16:11.904Z,2.40
2018-04-24T19:18:45.726Z,2.30
2018-04-24T19:21:13.972Z,2.60
2018-04-24T19:23:43.017Z,2.70
2018-04-24T19:26:11.256Z,2.40
2018-04-24T19:28:40.309Z,2.47
2018-04-24T19:31:13.824Z,2.53
2018-04-24T19:33:42.077Z,2.40
2018-04-24T19:36:10.339Z,2.53
2018-04-24T19:38:38.602Z,2.37
2018-04-24T19:41:12.325Z,2.33
2018-04-24T19:43:40.524Z,2.30
2018-04-24T19:46:08.776Z,2.60
2018-04-24T19:48:42.430Z,2.40
2018-04-24T19:51:10.680Z,2.70
2018-04-24T19:53:38.944Z,2.33
2018-04-24T19:56:07.191Z,2.57
2018-04-24T19:58:35.787Z,2.53
2018-04-24T20:01:03.988Z,2.92
2018-04-24T20:03:32.271Z,2.30
2018-04-24T20:06:00.523Z,2.50
2018-04-24T20:08:29.556Z,2.83
2018-04-24T20:10:57.810Z,2.63
2018-04-24T20:13:26.839Z,2.97
2018-04-24T20:15:55.097Z,2.63
2018-04-24T20:18:23.398Z,2.80
2018-04-24T20:20:51.615Z,3.20
2018-04-24T20:23:19.872Z,3.27
2018-04-24T20:25:48.127Z,3.17
2018-04-24T20:28:16.389Z,2.97
2018-04-24T20:30:45.435Z,3.28
2018-04-24T20:33:13.694Z,2.85
2018-04-24T20:35:41.959Z,3.23
2018-04-24T20:38:10.218Z,3.50
2018-04-24T20:40:39.256Z,3.72
2018-04-24T20:43:07.506Z,3.73
2018-04-24T20:45:36.531Z,3.33
2018-04-24T20:48:04.801Z,3.60
2018-04-24T20:50:33.067Z,3.43
2018-04-24T20:53:02.079Z,3.90
2018-04-24T20:55:30.373Z,4.30
2018-04-24T20:57:58.631Z,3.90
2018-04-24T21:00:26.907Z,4.87
2018-04-24T21:02:55.926Z,4.40
2018-04-24T21:05:24.203Z,4.50
2018-04-24T21:07:52.449Z,4.60
2018-04-24T21:10:21.485Z,5.03
2018-04-24T21:12:49.742Z,4.90
2018-04-24T21:15:18.251Z,4.12
2018-04-24T21:17:46.506Z,4.80
2018-04-24T21:20:15.528Z,4.37
2018-04-24T21:22:43.797Z,4.77
2018-04-24T21:25:12.077Z,4.85
2018-04-24T21:27:40.311Z,5.00
2018-04-24T21:30:08.583Z,5.60
2018-04-24T21:32:36.830Z,5.20
2018-04-24T21:35:05.144Z,5.18
2018-04-24T21:37:34.596Z,5.20
2018-04-24T21:40:03.996Z,5.47
2018-04-24T21:42:33.013Z,5.07
2018-04-24T21:45:01.283Z,5.23
2018-04-24T21:47:29.537Z,5.27
2018-04-24T21:49:57.803Z,4.83
2018-04-24T21:52:26.464Z,4.30
2018-04-24T21:54:54.715Z,4.45
2018-04-24T21:57:22.971Z,4.57
2018-04-24T21:59:51.237Z,4.30
2018-04-24T22:02:19.482Z,4.60
2018-04-24T22:04:47.725Z,4.83
2018-04-24T22:07:16.757Z,4.67
2018-04-24T22:09:44.995Z,4.23
2018-04-24T22:12:14.279Z,4.55
2018-04-24T22:14:42.528Z,4.07
2018-04-24T22:17:10.771Z,5.10
2018-04-24T22:19:39.853Z,4.22
2018-04-24T22:22:08.247Z,4.37
2018-04-24T22:24:37.259Z,4.20
2018-04-24T22:27:05.547Z,4.43
2018-04-24T22:29:33.769Z,4.40
2018-04-24T22:32:02.030Z,4.73
2018-04-24T22:34:30.275Z,4.47
2018-04-24T22:36:58.783Z,4.20
2018-04-24T22:39:27.028Z,4.13
2018-04-24T22:41:56.040Z,4.37
2018-04-24T22:44:24.296Z,4.73
2018-04-24T22:46:52.553Z,4.22
2018-04-24T22:49:20.800Z,4.80
2018-04-24T22:51:49.055Z,4.20
2018-04-24T22:54:18.080Z,4.40
2018-04-24T22:56:46.352Z,4.60
2018-04-24T22:59:14.591Z,4.40
2018-04-24T23:01:42.850Z,4.73
2018-04-24T23:04:11.087Z,4.43
2018-04-24T23:06:39.342Z,4.40
2018-04-24T23:09:08.347Z,4.55
2018-04-24T23:11:54.941Z,4.30
2018-04-24T23:14:41.440Z,4.07
2018-04-24T23:17:28.035Z,4.20
2018-04-24T23:20:14.591Z,4.33
2018-04-24T23:22:42.850Z,4.00
2018-04-24T23:25:11.086Z,3.95
2018-04-24T23:27:40.107Z,3.83
2018-04-24T23:30:08.351Z,4.03
2018-04-24T23:32:36.612Z,3.60
2018-04-24T23:35:04.853Z,4.63
2018-04-24T23:37:33.102Z,4.00
2018-04-24T23:40:01.413Z,3.90
2018-04-24T23:42:29.603Z,4.57
2018-04-24T23:44:57.852Z,3.90
2018-04-24T23:47:26.872Z,4.77
2018-04-24T23:49:55.115Z,3.93
2018-04-24T23:52:23.397Z,4.40
2018-04-24T23:54:51.638Z,3.95
2018-04-24T23:57:19.897Z,4.27
2018-04-24T23:59:48.138Z,4.60
